createdAt,value
2022-10-11T00:04:20.188Z,13.33
2022-10-11T00:09:24.355Z,13.64
2022-10-11T00:14:40.398Z,13.52
2022-10-11T00:19:56.537Z,13.41
2022-10-11T00:25:14.025Z,13.64
2022-10-11T00:30:31.229Z,13.58
2022-10-11T00:35:50.051Z,13.31
2022-10-11T00:41:09.416Z,13.25
2022-10-11T00:46:32.405Z,13.31
2022-10-11T00:51:54.188Z,13.39
2022-10-11T00:57:02.448Z,13.37
2022-10-11T01:02:08.080Z,13.35
2022-10-11T01:07:14.231Z,13.03
2022-10-11T01:12:21.223Z,12.98
2022-10-11T01:17:34.177Z,12.92
2022-10-11T01:23:08.462Z,13.13
2022-10-11T01:28:28.055Z,13.19
2022-10-11T01:33:36.758Z,13.39
2022-10-11T01:38:47.264Z,13.13
2022-10-11T01:43:53.305Z,12.87
2022-10-11T01:49:01.229Z,12.72
2022-10-11T01:55:03.907Z,12.62
2022-10-11T02:00:17.402Z,12.76
2022-10-11T02:05:41.539Z,12.84
2022-10-11T02:11:04.774Z,12.57
2022-10-11T02:16:27.643Z,12.73
2022-10-11T02:21:48.331Z,12.60
2022-10-11T02:27:09.476Z,12.86
2022-10-11T02:32:27.740Z,12.44
2022-10-11T02:37:52.741Z,12.34
2022-10-11T02:43:13.882Z,12.25
2022-10-11T02:48:31.734Z,12.10
2022-10-11T02:53:48.317Z,12.35
2022-10-11T02:59:04.966Z,12.71
2022-10-11T03:04:21.553Z,12.71
2022-10-11T03:09:38.078Z,12.79
2022-10-11T03:14:56.388Z,12.77
2022-10-11T03:20:00.724Z,12.59
2022-10-11T03:25:05.167Z,12.70
2022-10-11T03:30:17.313Z,12.54
2022-10-11T03:35:22.747Z,12.69
2022-10-11T03:40:27.046Z,12.99
2022-10-11T03:45:32.456Z,13.02
2022-10-11T03:50:38.574Z,12.78
2022-10-11T03:55:43.364Z,12.40
2022-10-11T04:00:48.756Z,12.72
2022-10-11T04:05:52.882Z,12.61
2022-10-11T04:10:56.904Z,12.28
2022-10-11T04:16:02.594Z,12.57
2022-10-11T04:21:20.153Z,12.60
2022-10-11T04:26:38.972Z,12.66
2022-10-11T04:31:55.201Z,12.46
2022-10-11T04:37:11.671Z,12.67
2022-10-11T04:42:28.602Z,12.85
2022-10-11T04:48:09.879Z,12.76
2022-10-11T04:53:26.419Z,12.31
2022-10-11T04:58:42.956Z,12.41
2022-10-11T05:03:47.074Z,12.22
2022-10-11T05:08:51.169Z,12.38
2022-10-11T05:13:57.109Z,12.50
2022-10-11T05:19:01.251Z,12.60
2022-10-11T05:24:05.842Z,12.47
2022-10-11T05:29:11.648Z,12.48
2022-10-11T05:34:15.623Z,12.40
2022-10-11T05:39:19.604Z,12.41
2022-10-11T05:44:25.342Z,12.49
2022-10-11T05:49:29.849Z,12.59
2022-10-11T05:54:34.758Z,12.51
2022-10-11T05:59:41.418Z,12.58
2022-10-11T06:04:45.430Z,12.49
2022-10-11T06:09:49.641Z,12.48
2022-10-11T06:14:59.032Z,12.43
2022-10-11T06:20:02.828Z,12.39
2022-10-11T06:25:08.073Z,12.92
2022-10-11T06:30:14.795Z,12.80
2022-10-11T06:35:18.900Z,13.03
2022-10-11T06:40:24.292Z,13.17
2022-10-11T06:45:29.651Z,13.22
2022-10-11T06:50:57.908Z,13.07
2022-10-11T06:56:04.432Z,13.07
2022-10-11T07:01:13.128Z,13.10
2022-10-11T07:06:18.935Z,13.15
2022-10-11T07:11:25.450Z,13.10
2022-10-11T07:16:32.094Z,13.28
2022-10-11T07:21:36.863Z,13.31
2022-10-11T07:26:41.222Z,13.55
2022-10-11T07:31:46.738Z,13.53
2022-10-11T07:36:59.441Z,13.60
2022-10-11T07:42:03.646Z,13.79
2022-10-11T07:47:11.434Z,13.42
2022-10-11T07:52:15.675Z,12.73
2022-10-11T07:57:31.022Z,12.66
2022-10-11T08:03:07.201Z,13.03
2022-10-11T08:08:49.040Z,13.21
2022-10-11T08:14:22.215Z,13.41
2022-10-11T08:19:54.605Z,13.46
2022-10-11T08:25:29.492Z,13.77
2022-10-11T08:31:03.208Z,13.90
2022-10-11T08:36:38.836Z,14.11
2022-10-11T08:42:48.474Z,14.24
2022-10-11T08:48:21.432Z,13.95
2022-10-11T08:53:55.455Z,13.74
2022-10-11T08:59:37.616Z,13.79
2022-10-11T09:04:57.673Z,14.39
2022-10-11T09:10:20.990Z,15.03
2022-10-11T09:15:40.528Z,15.26
2022-10-11T09:21:03.655Z,15.47
2022-10-11T09:26:16.081Z,15.44
2022-10-11T09:31:20.525Z,15.38
2022-10-11T09:36:32.688Z,15.26
2022-10-11T09:41:44.290Z,15.59
2022-10-11T09:46:51.056Z,15.90
2022-10-11T09:51:58.955Z,16.20
2022-10-11T09:57:03.083Z,15.99
2022-10-11T10:02:22.225Z,16.44
2022-10-11T10:07:28.694Z,17.02
2022-10-11T10:12:33.993Z,17.18
2022-10-11T10:17:38.100Z,17.15
2022-10-11T10:22:48.112Z,16.64
2022-10-11T10:28:00.256Z,17.49
2022-10-11T10:33:08.890Z,17.81
2022-10-11T10:38:26.597Z,18.85
2022-10-11T10:43:36.241Z,20.09
2022-10-11T10:49:23.649Z,20.68
2022-10-11T10:54:18.997Z,20.44
2022-10-11T10:59:41.102Z,19.98
2022-10-11T11:04:51.970Z,19.97
2022-10-11T11:10:04.036Z,19.51
2022-10-11T11:15:14.474Z,19.35
2022-10-11T11:20:29.885Z,18.96
2022-10-11T11:25:45.214Z,18.71
2022-10-11T11:30:59.257Z,18.33
2022-10-11T11:36:07.771Z,17.97
2022-10-11T11:41:19.047Z,17.77
2022-10-11T11:46:28.248Z,17.33
2022-10-11T11:51:35.548Z,17.08
2022-10-11T11:56:55.182Z,17.02
2022-10-11T12:02:17.701Z,16.99
2022-10-11T12:07:24.837Z,16.85
2022-10-11T12:12:36.738Z,16.79
2022-10-11T12:18:03.561Z,16.51
2022-10-11T12:23:40.130Z,16.91
2022-10-11T12:29:17.529Z,16.68
2022-10-11T12:34:35.436Z,16.86
2022-10-11T12:39:50.905Z,17.13
2022-10-11T12:45:32.237Z,17.32
2022-10-11T12:50:46.644Z,17.04
2022-10-11T12:55:59.215Z,17.02
2022-10-11T13:01:19.121Z,16.93
2022-10-11T13:06:28.761Z,17.08
2022-10-11T13:11:35.767Z,17.12
2022-10-11T13:17:00.332Z,17.14
2022-10-11T13:22:08.336Z,16.83
2022-10-11T13:27:22.713Z,16.77
2022-10-11T13:32:30.950Z,16.96
2022-10-11T13:37:43.678Z,16.71
2022-10-11T13:42:50.923Z,16.68
2022-10-11T13:47:57.942Z,16.33
2022-10-11T13:53:04.318Z,16.07
2022-10-11T13:58:18.957Z,16.03
2022-10-11T14:03:27.064Z,15.74
2022-10-11T14:08:40.953Z,15.45
2022-10-11T14:13:48.057Z,15.16
2022-10-11T14:19:10.070Z,15.10
2022-10-11T14:24:14.936Z,14.96
2022-10-11T14:29:23.672Z,15.01
2022-10-11T14:34:30.191Z,14.91
2022-10-11T14:39:35.502Z,14.87
2022-10-11T14:44:42.125Z,14.94
2022-10-11T14:49:48.618Z,15.03
2022-10-11T14:54:52.741Z,14.88
2022-10-11T14:59:56.781Z,15.07
2022-10-11T15:05:02.667Z,15.18
2022-10-11T15:10:18.757Z,15.07
2022-10-11T15:15:25.967Z,15.06
2022-10-11T15:20:36.302Z,15.12
2022-10-11T15:25:44.593Z,15.18
2022-10-11T15:30:48.722Z,14.88
2022-10-11T15:35:54.658Z,14.82
2022-10-11T15:41:00.117Z,14.78
2022-10-11T15:46:05.083Z,14.73
2022-10-11T15:51:11.448Z,14.95
2022-10-11T15:56:18.938Z,14.95
2022-10-11T16:01:22.928Z,14.88
2022-10-11T16:06:30.268Z,14.64
2022-10-11T16:11:34.452Z,14.61
2022-10-11T16:16:38.766Z,14.68
2022-10-11T16:21:44.467Z,14.71
2022-10-11T16:26:48.552Z,14.74
2022-10-11T16:31:52.678Z,14.55
2022-10-11T16:36:58.390Z,14.48
2022-10-11T16:42:03.299Z,14.53
2022-10-11T16:47:08.113Z,14.46
2022-10-11T16:52:15.149Z,14.43
2022-10-11T16:57:21.898Z,14.45
2022-10-11T17:02:32.145Z,14.61
2022-10-11T17:07:38.118Z,14.67
2022-10-11T17:12:47.720Z,14.43
2022-10-11T17:17:57.023Z,14.16
2022-10-11T17:23:02.930Z,14.09
2022-10-11T17:28:07.178Z,13.97
2022-10-11T17:33:12.730Z,13.93
2022-10-11T17:38:19.840Z,13.97
2022-10-11T17:43:24.214Z,14.00
2022-10-11T17:48:29.888Z,14.17
2022-10-11T17:53:37.555Z,14.29
2022-10-11T17:58:45.582Z,14.45
2022-10-11T18:03:52.746Z,14.21
2022-10-11T18:09:01.088Z,14.30
2022-10-11T18:14:08.267Z,14.29
2022-10-11T18:19:14.881Z,14.34
2022-10-11T18:24:22.290Z,14.08
2022-10-11T18:29:26.877Z,14.18
2022-10-11T18:34:31.153Z,14.18
2022-10-11T18:39:36.823Z,14.10
2022-10-11T18:44:40.899Z,14.18
2022-10-11T18:49:45.062Z,14.22
2022-10-11T18:54:50.455Z,14.01
2022-10-11T18:59:55.454Z,13.99
2022-10-11T19:04:59.760Z,13.90
2022-10-11T19:10:05.961Z,13.88
2022-10-11T19:15:11.995Z,13.67
2022-10-11T19:20:16.807Z,13.75
2022-10-11T19:25:24.659Z,13.75
2022-10-11T19:30:29.198Z,13.58
2022-10-11T19:35:34.431Z,13.58
2022-10-11T19:40:39.996Z,13.60
2022-10-11T19:45:44.797Z,13.76
2022-10-11T19:50:48.927Z,13.80
2022-10-11T19:55:54.626Z,13.89
2022-10-11T20:01:04.639Z,13.83
2022-10-11T20:06:09.783Z,13.89
2022-10-11T20:11:15.655Z,14.02
2022-10-11T20:16:23.079Z,13.74
2022-10-11T20:21:30.031Z,13.75
2022-10-11T20:26:36.348Z,13.83
2022-10-11T20:31:40.932Z,13.64
2022-10-11T20:36:48.895Z,13.54
2022-10-11T20:41:54.517Z,13.56
2022-10-11T20:47:03.740Z,13.45
2022-10-11T20:52:08.412Z,13.47
2022-10-11T20:57:14.405Z,13.57
2022-10-11T21:02:19.161Z,13.42
2022-10-11T21:07:23.400Z,13.24
2022-10-11T21:12:28.775Z,13.06
2022-10-11T21:17:32.841Z,13.02
2022-10-11T21:22:37.189Z,13.17
2022-10-11T21:27:43.119Z,13.10
2022-10-11T21:32:47.169Z,13.29
2022-10-11T21:37:51.235Z,13.32
2022-10-11T21:42:56.864Z,13.25
2022-10-11T21:48:00.897Z,13.14
2022-10-11T21:53:04.988Z,13.10
2022-10-11T21:58:10.470Z,13.29
2022-10-11T22:03:14.450Z,13.22
2022-10-11T22:08:19.814Z,13.29
2022-10-11T22:13:25.754Z,13.26
2022-10-11T22:18:33.315Z,13.25
2022-10-11T22:23:38.025Z,13.22
2022-10-11T22:28:44.190Z,13.27
2022-10-11T22:33:48.521Z,13.32
2022-10-11T22:38:52.844Z,13.32
2022-10-11T22:43:58.317Z,13.33
2022-10-11T22:49:02.349Z,13.18
2022-10-11T22:54:06.601Z,13.28
2022-10-11T22:59:12.946Z,13.30
2022-10-11T23:04:17.727Z,13.30
2022-10-11T23:09:21.951Z,13.00
2022-10-11T23:14:28.265Z,13.24
2022-10-11T23:19:32.224Z,12.99
2022-10-11T23:24:36.234Z,12.97
2022-10-11T23:29:41.756Z,13.06
2022-10-11T23:34:46.773Z,13.15
2022-10-11T23:39:52.078Z,13.23
2022-10-11T23:44:57.396Z,13.22
2022-10-11T23:50:01.896Z,12.93
2022-10-11T23:55:06.673Z,13.14
